Time;durP1;ratioP1;P1;durP2;ratioP2;P2;SDS_P1;SDS_P2;PMS_P1;PMS_P2;Temp;Humidity;BMP_temperature;BMP_pressure;BME280_temperature;BME280_humidity;BME280_pressure;Samples;Min_cycle;Max_cycle;Signal;HPM_P1;HPM_P2
2022/04/03 00:01:13;;;;;;;5.60;4.25;;;0.00;99.90;;;;;;4959619;28;20058;-61
2022/04/03 00:03:39;;;;;;;6.78;4.65;;;0.00;99.90;;;;;;4961761;28;20159;-61
2022/04/03 00:06:05;;;;;;;10.98;5.38;;;0.00;99.90;;;;;;4966945;28;20074;-62
2022/04/03 00:08:31;;;;;;;9.27;5.18;;;0.00;99.90;;;;;;4944003;28;20047;-61
2022/04/03 00:10:57;;;;;;;10.38;5.32;;;0.10;99.90;;;;;;4967495;28;20051;-62
2022/04/03 00:13:23;;;;;;;8.05;5.25;;;0.10;99.90;;;;;;4967175;28;20044;-62
2022/04/03 00:15:49;;;;;;;7.13;4.63;;;0.10;99.90;;;;;;4961106;28;20176;-62
2022/04/03 00:18:15;;;;;;;9.60;5.22;;;0.10;99.90;;;;;;4946645;28;20083;-62
2022/04/03 00:20:41;;;;;;;7.72;4.35;;;0.20;99.90;;;;;;4966264;28;20057;-61
2022/04/03 00:23:08;;;;;;;7.07;4.50;;;0.20;99.90;;;;;;4929406;28;20188;-63
2022/04/03 00:25:34;;;;;;;7.30;4.38;;;0.20;99.90;;;;;;4966450;28;20354;-62
2022/04/03 00:28:00;;;;;;;7.03;4.60;;;0.20;99.90;;;;;;4934443;28;20079;-62
2022/04/03 00:30:26;;;;;;;6.35;3.97;;;0.20;99.90;;;;;;4961679;28;20157;-62
2022/04/03 00:32:52;;;;;;;5.78;3.95;;;0.20;99.90;;;;;;4931139;28;20058;-62
2022/04/03 00:35:20;;;;;;;6.10;3.83;;;0.20;99.90;;;;;;4964560;28;20665;-62
2022/04/03 00:37:46;;;;;;;6.25;4.22;;;0.20;99.90;;;;;;4931221;28;20062;-62
2022/04/03 00:40:13;;;;;;;6.30;4.35;;;0.20;99.90;;;;;;4962743;28;20048;-62
2022/04/03 00:42:39;;;;;;;8.25;3.95;;;0.20;99.90;;;;;;4931162;28;20086;-61
2022/04/03 00:45:06;;;;;;;7.03;4.18;;;0.20;99.90;;;;;;4965600;28;20047;-62
2022/04/03 00:47:33;;;;;;;8.93;3.85;;;0.20;99.90;;;;;;4930824;28;20051;-62
2022/04/03 00:49:59;;;;;;;6.50;3.70;;;0.20;99.90;;;;;;4949059;28;20083;-62
2022/04/03 00:52:25;;;;;;;6.57;3.88;;;0.20;99.90;;;;;;4960251;28;20056;-61
2022/04/03 00:54:51;;;;;;;6.10;4.05;;;0.20;99.90;;;;;;4964902;28;20044;-62
2022/04/03 00:57:20;;;;;;;5.22;3.67;;;0.20;99.90;;;;;;4943400;28;20111;-63
2022/04/03 00:59:47;;;;;;;4.75;3.38;;;0.10;99.90;;;;;;4967426;28;20156;-61
2022/04/03 01:02:13;;;;;;;5.10;3.50;;;0.10;99.90;;;;;;4935315;28;20828;-61
2022/04/03 01:04:39;;;;;;;6.60;3.55;;;0.10;99.90;;;;;;4937075;28;20047;-62
2022/04/03 01:07:06;;;;;;;5.43;3.78;;;0.00;99.90;;;;;;4934081;28;20047;-61
2022/04/03 01:09:33;;;;;;;4.63;3.40;;;0.00;99.90;;;;;;4967913;28;20408;-62
2022/04/03 01:11:58;;;;;;;6.13;3.30;;;0.00;99.90;;;;;;4948592;28;20042;-62
2022/04/03 01:14:42;;;;;;;6.93;3.75;;;0.00;99.90;;;;;;4951632;28;20047;-62
2022/04/03 01:17:11;;;;;;;5.60;3.05;;;-0.10;99.90;;;;;;4935028;28;20078;-62
2022/04/03 01:19:40;;;;;;;5.05;3.58;;;-0.10;99.90;;;;;;4945278;28;20046;-62
2022/04/03 01:22:07;;;;;;;4.88;3.40;;;-0.10;99.90;;;;;;4940744;28;20047;-62
2022/04/03 01:24:34;;;;;;;3.95;3.17;;;-0.10;99.90;;;;;;4936249;28;20472;-62
2022/04/03 01:27:00;;;;;;;5.63;4.13;;;-0.10;99.90;;;;;;4962863;28;20055;-61
2022/04/03 01:29:26;;;;;;;5.25;3.45;;;-0.20;99.90;;;;;;4948759;28;20061;-62
2022/04/03 01:31:53;;;;;;;5.40;3.47;;;-0.30;99.90;;;;;;4935252;28;20108;-62
2022/04/03 01:34:20;;;;;;;6.38;3.90;;;-0.20;99.90;;;;;;4965670;28;20204;-61
2022/04/03 01:36:47;;;;;;;7.07;3.67;;;-0.30;99.90;;;;;;4932828;28;20512;-62
2022/04/03 01:39:13;;;;;;;5.95;3.88;;;-0.30;99.90;;;;;;4959441;28;20097;-62
2022/04/03 01:41:43;;;;;;;5.35;3.47;;;-0.30;99.90;;;;;;4950462;28;20046;-62
2022/04/03 01:44:10;;;;;;;7.15;4.03;;;-0.30;99.90;;;;;;4936414;28;20067;-61
2022/04/03 01:46:37;;;;;;;5.75;3.90;;;-0.20;99.90;;;;;;4951925;28;20035;-62
2022/04/03 01:49:07;;;;;;;7.97;4.05;;;-0.20;99.90;;;;;;4964540;28;20126;-62
2022/04/03 01:51:33;;;;;;;6.85;4.00;;;-0.20;99.90;;;;;;4954106;28;20047;-62
2022/04/03 01:54:01;;;;;;;6.18;3.47;;;-0.10;99.90;;;;;;4963862;28;20117;-62
2022/04/03 01:56:26;;;;;;;8.73;3.55;;;-0.10;99.90;;;;;;4963576;28;20524;-62
2022/04/03 01:58:52;;;;;;;6.78;3.97;;;0.00;99.90;;;;;;4930485;28;20066;-62
2022/04/03 02:01:18;;;;;;;5.45;3.85;;;0.00;99.90;;;;;;4923281;28;20082;-61
2022/04/03 02:03:46;;;;;;;9.65;3.80;;;0.00;99.90;;;;;;4948405;28;20133;-62
2022/04/03 02:06:13;;;;;;;7.18;3.70;;;0.00;99.90;;;;;;4964576;28;20194;-62
2022/04/03 02:08:39;;;;;;;7.18;4.00;;;0.00;99.90;;;;;;4954943;28;20051;-61
2022/04/03 02:11:05;;;;;;;6.95;3.63;;;0.10;99.90;;;;;;4950074;28;20366;-62
2022/04/03 02:13:31;;;;;;;5.63;3.15;;;0.10;99.90;;;;;;4923885;28;20034;-63
2022/04/03 02:15:56;;;;;;;7.03;3.75;;;0.10;99.90;;;;;;4966303;28;20039;-62
2022/04/03 02:18:23;;;;;;;4.90;3.13;;;0.10;99.90;;;;;;4967140;28;20054;-62
2022/04/03 02:20:49;;;;;;;5.63;3.35;;;0.20;99.90;;;;;;4932386;28;20043;-63
2022/04/03 02:23:16;;;;;;;5.20;3.08;;;0.20;99.90;;;;;;4962839;28;20057;-62
2022/04/03 02:25:41;;;;;;;3.72;3.13;;;0.20;99.90;;;;;;4968384;28;20464;-62
2022/04/03 02:28:09;;;;;;;9.05;3.25;;;0.30;99.90;;;;;;4964052;28;20054;-61
2022/04/03 02:30:35;;;;;;;6.55;3.40;;;0.30;99.90;;;;;;4965382;28;20051;-62
2022/04/03 02:33:01;;;;;;;4.97;3.20;;;0.30;99.90;;;;;;4951967;28;20426;-62
2022/04/03 02:35:27;;;;;;;4.32;3.22;;;0.40;99.90;;;;;;4932813;28;20054;-62
2022/04/03 02:37:53;;;;;;;4.95;3.08;;;0.40;99.90;;;;;;4923988;28;20145;-62
2022/04/03 02:40:19;;;;;;;5.55;3.17;;;0.40;99.90;;;;;;4932240;28;20050;-62
2022/04/03 02:42:45;;;;;;;4.47;3.40;;;0.50;99.90;;;;;;4964854;28;20058;-62
2022/04/03 02:45:12;;;;;;;7.25;3.42;;;0.50;99.90;;;;;;4935779;28;20046;-62
2022/04/03 02:47:38;;;;;;;6.93;3.85;;;0.50;99.90;;;;;;4966665;28;20063;-62
2022/04/03 02:50:05;;;;;;;4.43;3.17;;;0.50;99.90;;;;;;4949875;28;20650;-62
2022/04/03 02:52:31;;;;;;;5.35;3.28;;;0.60;99.90;;;;;;4929546;28;20047;-61
2022/04/03 02:54:57;;;;;;;3.50;2.63;;;0.60;99.90;;;;;;4915448;28;20046;-62
2022/04/03 02:57:23;;;;;;;3.30;2.30;;;0.60;99.90;;;;;;4932018;28;20042;-62
2022/04/03 02:59:49;;;;;;;3.45;1.95;;;0.70;99.90;;;;;;4940323;28;20055;-62
2022/04/03 03:02:15;;;;;;;2.75;1.60;;;0.80;99.90;;;;;;4936233;28;20039;-62
2022/04/03 03:04:41;;;;;;;6.00;1.80;;;0.80;99.90;;;;;;4947391;28;20141;-62
2022/04/03 03:07:09;;;;;;;4.40;1.90;;;0.90;99.90;;;;;;4966004;28;20110;-62
2022/04/03 03:09:35;;;;;;;3.58;1.55;;;0.90;99.90;;;;;;4964892;28;20547;-62
2022/04/03 03:12:01;;;;;;;2.47;1.50;;;1.00;99.90;;;;;;4954325;28;20050;-61
2022/04/03 03:14:27;;;;;;;3.67;1.55;;;1.00;99.90;;;;;;4928432;28;20047;-62
2022/04/03 03:16:55;;;;;;;2.42;1.30;;;1.00;99.90;;;;;;4970790;28;20516;-62
2022/04/03 03:19:21;;;;;;;1.55;1.30;;;1.00;99.90;;;;;;4941530;28;20051;-62
2022/04/03 03:21:47;;;;;;;4.55;1.25;;;1.10;99.90;;;;;;4976267;28;20493;-63
2022/04/03 03:24:13;;;;;;;2.03;1.25;;;1.10;99.90;;;;;;4923778;28;20886;-62
2022/04/03 03:26:39;;;;;;;4.10;1.40;;;1.20;99.90;;;;;;4959505;28;20047;-62
2022/04/03 03:29:05;;;;;;;2.33;1.30;;;1.20;99.90;;;;;;4927628;28;20043;-62
2022/04/03 03:31:31;;;;;;;2.15;1.20;;;1.20;99.90;;;;;;4971739;28;20043;-62
2022/04/03 03:33:57;;;;;;;2.00;1.50;;;1.20;99.90;;;;;;4970107;28;20039;-62
2022/04/03 03:36:23;;;;;;;6.80;1.70;;;1.20;99.90;;;;;;4965429;28;20058;-62
2022/04/03 03:38:49;;;;;;;1.52;1.30;;;1.30;99.90;;;;;;4942130;28;20046;-62
2022/04/03 03:41:15;;;;;;;5.75;1.48;;;1.20;99.90;;;;;;4922719;28;20530;-62
2022/04/03 03:43:42;;;;;;;2.78;1.40;;;1.20;99.90;;;;;;4904613;28;20047;-62
2022/04/03 03:46:10;;;;;;;1.75;1.58;;;1.20;99.90;;;;;;4936223;28;20047;-62
2022/04/03 03:48:37;;;;;;;1.88;1.40;;;1.20;99.90;;;;;;4953628;28;20054;-62
2022/04/03 03:51:03;;;;;;;2.63;1.60;;;1.20;99.90;;;;;;4964361;28;20129;-62
2022/04/03 03:53:30;;;;;;;1.73;1.38;;;1.10;99.90;;;;;;4970037;28;20043;-62
2022/04/03 03:55:56;;;;;;;1.50;1.40;;;1.10;99.90;;;;;;4954822;28;20043;-62
2022/04/03 03:58:22;;;;;;;3.22;2.00;;;1.10;99.90;;;;;;4949220;28;20102;-62
2022/04/03 04:00:48;;;;;;;4.78;1.75;;;1.10;99.90;;;;;;4951961;28;20126;-62
2022/04/03 04:03:14;;;;;;;2.83;1.95;;;1.00;99.90;;;;;;4984412;28;20050;-62
2022/04/03 04:05:40;;;;;;;4.32;2.28;;;1.00;99.90;;;;;;4951113;28;20520;-62
2022/04/03 04:08:10;;;;;;;4.18;2.03;;;0.90;99.90;;;;;;4916585;28;20043;-62
2022/04/03 04:10:36;;;;;;;2.10;1.90;;;0.90;99.90;;;;;;4967839;28;20083;-62
2022/04/03 04:13:03;;;;;;;4.70;1.98;;;0.90;99.90;;;;;;4934040;28;20050;-61
2022/04/03 04:15:30;;;;;;;5.05;2.50;;;0.90;99.90;;;;;;4937353;28;20531;-62
2022/04/03 04:17:56;;;;;;;3.80;2.28;;;0.80;99.90;;;;;;4938973;28;20227;-62
2022/04/03 04:20:22;;;;;;;3.30;2.10;;;0.80;99.90;;;;;;4935525;28;20054;-61
2022/04/03 04:22:49;;;;;;;5.28;2.08;;;0.80;99.90;;;;;;4966622;28;20050;-62
2022/04/03 04:25:16;;;;;;;2.75;1.80;;;0.80;99.90;;;;;;4935686;28;20121;-62
2022/04/03 04:27:43;;;;;;;4.15;2.30;;;0.70;99.90;;;;;;4939640;28;20051;-61
2022/04/03 04:30:10;;;;;;;3.10;2.00;;;0.70;99.90;;;;;;4940053;28;20461;-62
2022/04/03 04:32:36;;;;;;;4.28;2.55;;;0.70;99.90;;;;;;4984982;28;20061;-62
2022/04/03 04:35:03;;;;;;;6.60;2.38;;;0.70;99.90;;;;;;4945468;28;20089;-61
2022/04/03 04:37:29;;;;;;;3.13;2.45;;;0.70;99.90;;;;;;4920283;28;20093;-61
2022/04/03 04:39:56;;;;;;;3.70;2.40;;;0.70;99.90;;;;;;4954897;28;20042;-61
2022/04/03 04:42:22;;;;;;;5.00;2.20;;;0.70;99.90;;;;;;4934693;28;20117;-62
2022/04/03 04:44:48;;;;;;;3.15;2.28;;;0.70;99.90;;;;;;4936119;28;20555;-61
2022/04/03 04:47:14;;;;;;;5.55;2.13;;;0.60;99.90;;;;;;4934768;28;20047;-62
2022/04/03 04:49:40;;;;;;;5.45;2.20;;;0.60;99.90;;;;;;4967672;28;20051;-62
2022/04/03 04:52:06;;;;;;;4.90;2.05;;;0.60;99.90;;;;;;4952630;28;20112;-62
2022/04/03 04:54:32;;;;;;;2.85;2.13;;;0.60;99.90;;;;;;4934409;28;20094;-61
2022/04/03 04:56:59;;;;;;;4.32;2.72;;;0.50;99.90;;;;;;4950554;28;20087;-62
2022/04/03 04:59:25;;;;;;;3.92;2.50;;;0.50;99.90;;;;;;4914877;28;20070;-61
2022/04/03 05:01:56;;;;;;;2.80;2.00;;;0.50;99.90;;;;;;4965840;28;20055;-62
2022/04/03 05:04:23;;;;;;;3.60;2.20;;;0.40;99.90;;;;;;4933973;28;20055;-62
2022/04/03 05:06:50;;;;;;;8.07;2.20;;;0.40;99.90;;;;;;4935353;28;20119;-62
2022/04/03 05:09:17;;;;;;;4.60;2.50;;;0.30;99.90;;;;;;4965152;28;20066;-62
2022/04/03 05:11:46;;;;;;;4.97;2.42;;;0.40;99.90;;;;;;4932417;28;20050;-62
2022/04/03 05:14:13;;;;;;;3.55;2.30;;;0.30;99.90;;;;;;4932454;28;20533;-62
2022/04/03 05:16:39;;;;;;;4.15;2.30;;;0.30;99.90;;;;;;4932584;28;20065;-62
2022/04/03 05:19:05;;;;;;;4.40;2.25;;;0.30;99.90;;;;;;4964246;28;20125;-62
2022/04/03 05:21:31;;;;;;;2.88;2.20;;;0.20;99.90;;;;;;4943669;28;20059;-61
2022/04/03 05:23:57;;;;;;;3.17;2.50;;;0.20;99.90;;;;;;4965463;28;20114;-62
2022/04/03 05:26:22;;;;;;;3.28;2.47;;;0.30;99.90;;;;;;4924702;28;20044;-61
2022/04/03 05:28:48;;;;;;;7.07;2.58;;;0.30;99.90;;;;;;4927290;28;20138;-62
2022/04/03 05:31:14;;;;;;;4.97;2.88;;;0.30;99.90;;;;;;4938820;28;20528;-61
2022/04/03 05:33:41;;;;;;;3.88;2.90;;;0.30;99.90;;;;;;4934228;28;20515;-59
2022/04/03 05:36:07;;;;;;;6.18;2.83;;;0.30;99.90;;;;;;4949014;28;20408;-61
2022/04/03 05:38:32;;;;;;;6.03;2.70;;;0.30;99.90;;;;;;4962649;28;20245;-61
2022/04/03 05:40:58;;;;;;;4.75;2.70;;;0.40;99.90;;;;;;4920266;28;20062;-62
2022/04/03 05:43:24;;;;;;;5.63;2.85;;;0.30;99.90;;;;;;4932395;28;20485;-62
2022/04/03 05:45:50;;;;;;;7.85;2.67;;;0.30;99.90;;;;;;4938266;28;20161;-62
2022/04/03 05:48:16;;;;;;;6.35;3.05;;;0.40;99.90;;;;;;4963403;28;20094;-61
2022/04/03 05:50:41;;;;;;;3.38;2.63;;;0.30;99.90;;;;;;4932221;28;20083;-62
2022/04/03 05:53:07;;;;;;;5.40;3.50;;;0.40;99.90;;;;;;4962377;28;20134;-61
2022/04/03 05:55:33;;;;;;;4.85;3.22;;;0.40;99.90;;;;;;4930965;28;20043;-62
2022/04/03 05:58:00;;;;;;;4.30;2.90;;;0.40;99.90;;;;;;4965547;28;20122;-61
2022/04/03 06:00:25;;;;;;;6.13;2.85;;;0.40;99.90;;;;;;4932206;28;20135;-62
2022/04/03 06:02:54;;;;;;;5.50;3.15;;;0.50;99.90;;;;;;4933184;28;20503;-61
2022/04/03 06:05:25;;;;;;;6.00;2.92;;;0.50;99.90;;;;;;4936530;28;20126;-62
2022/04/03 06:07:51;;;;;;;5.22;3.15;;;0.60;99.90;;;;;;4919632;29;20059;-61
2022/04/03 06:10:20;;;;;;;6.50;3.15;;;0.60;99.90;;;;;;4932798;28;20603;-62
2022/04/03 06:12:52;;;;;;;4.53;3.13;;;0.60;99.90;;;;;;4933344;28;20040;-61
2022/04/03 06:15:19;;;;;;;5.70;3.28;;;0.70;99.90;;;;;;4965875;28;20837;-62
2022/04/03 06:17:48;;;;;;;4.07;2.75;;;0.80;99.90;;;;;;4931937;28;20098;-61
2022/04/03 06:20:14;;;;;;;6.65;2.83;;;0.80;99.90;;;;;;4963321;28;20065;-62
2022/04/03 06:22:40;;;;;;;5.05;3.05;;;0.80;99.90;;;;;;4950586;28;20113;-62
2022/04/03 06:25:07;;;;;;;4.70;3.00;;;0.80;99.90;;;;;;4934869;28;20051;-62
2022/04/03 06:27:34;;;;;;;5.28;3.08;;;0.90;99.90;;;;;;4954525;28;21292;-62
2022/04/03 06:30:00;;;;;;;8.10;3.00;;;0.80;99.90;;;;;;4957582;28;20486;-61
2022/04/03 06:32:25;;;;;;;6.32;3.25;;;0.80;99.90;;;;;;4938513;28;20054;-62
2022/04/03 06:34:51;;;;;;;8.35;3.33;;;0.80;99.90;;;;;;4933207;28;20066;-61
2022/04/03 06:37:17;;;;;;;6.28;3.08;;;0.80;99.90;;;;;;4962572;28;20444;-62
2022/04/03 06:39:43;;;;;;;5.15;2.30;;;0.90;99.90;;;;;;4947890;28;20040;-61
2022/04/03 06:42:09;;;;;;;5.93;2.58;;;0.90;99.90;;;;;;4935860;28;20043;-62
2022/04/03 06:44:35;;;;;;;4.15;2.70;;;1.00;99.90;;;;;;4930768;28;20077;-62
2022/04/03 06:47:01;;;;;;;7.88;2.78;;;1.10;99.90;;;;;;4928531;28;20107;-61
2022/04/03 06:49:30;;;;;;;5.38;2.45;;;1.10;99.90;;;;;;4931732;28;20134;-61
2022/04/03 06:51:56;;;;;;;3.50;2.50;;;1.20;99.90;;;;;;4927071;28;20048;-61
2022/04/03 06:54:22;;;;;;;6.82;2.30;;;1.20;99.90;;;;;;4918210;29;20066;-61
2022/04/03 06:56:48;;;;;;;7.65;2.50;;;1.30;99.90;;;;;;4923818;28;20047;-61
2022/04/03 06:59:14;;;;;;;8.27;2.40;;;1.30;99.90;;;;;;4963081;28;20060;-61
2022/04/03 07:01:40;;;;;;;4.88;2.03;;;1.50;99.90;;;;;;4908711;28;20138;-61
2022/04/03 07:04:05;;;;;;;4.68;2.53;;;1.60;99.90;;;;;;4943393;28;20036;-61
2022/04/03 07:06:31;;;;;;;7.35;2.78;;;1.70;99.90;;;;;;4928803;28;20126;-61
2022/04/03 07:08:57;;;;;;;5.43;2.80;;;1.80;99.90;;;;;;4963184;28;20044;-61
2022/04/03 07:11:23;;;;;;;7.72;2.20;;;2.00;99.90;;;;;;4963849;28;20058;-61
2022/04/03 07:13:49;;;;;;;5.55;2.60;;;2.10;99.90;;;;;;4928806;28;20051;-61
2022/04/03 07:16:15;;;;;;;5.38;2.33;;;2.30;99.90;;;;;;4921350;29;20501;-62
2022/04/03 07:18:41;;;;;;;7.65;2.97;;;2.40;99.90;;;;;;4931152;28;20059;-61
2022/04/03 07:21:07;;;;;;;4.13;1.50;;;2.60;99.90;;;;;;4938497;28;20462;-61
2022/04/03 07:23:33;;;;;;;6.43;1.55;;;2.80;99.90;;;;;;4929460;28;20049;-62
2022/04/03 07:25:59;;;;;;;2.95;0.82;;;3.00;99.90;;;;;;4962795;28;20490;-62
2022/04/03 07:28:24;;;;;;;1.55;0.82;;;3.20;99.90;;;;;;4952261;28;20110;-61
2022/04/03 07:30:51;;;;;;;1.85;0.60;;;3.30;99.90;;;;;;4963490;28;20101;-61
2022/04/03 07:33:20;;;;;;;1.63;0.80;;;3.40;99.90;;;;;;4922603;28;20393;-61
2022/04/03 07:35:50;;;;;;;2.20;0.80;;;3.50;99.90;;;;;;4914555;28;20047;-62
2022/04/03 07:38:16;;;;;;;1.77;1.13;;;3.50;99.90;;;;;;4961195;28;20098;-62
2022/04/03 07:40:42;;;;;;;2.53;0.95;;;3.50;99.90;;;;;;4929847;28;20044;-61
2022/04/03 07:43:08;;;;;;;3.70;1.20;;;3.60;99.90;;;;;;4899241;29;21550;-61
2022/04/03 07:45:34;;;;;;;4.07;1.10;;;3.70;99.90;;;;;;4914383;28;20051;-62
2022/04/03 07:48:00;;;;;;;3.75;1.20;;;3.80;99.90;;;;;;4944566;28;20189;-61
2022/04/03 07:50:26;;;;;;;5.65;1.55;;;4.00;99.90;;;;;;4924616;28;20047;-61
2022/04/03 07:52:52;;;;;;;2.45;1.52;;;4.10;99.90;;;;;;4929427;28;20063;-61
2022/04/03 07:55:18;;;;;;;5.72;1.83;;;4.30;99.90;;;;;;4925562;28;21826;-61
2022/04/03 07:57:45;;;;;;;3.33;1.50;;;4.50;99.90;;;;;;4941518;28;20161;-61
2022/04/03 08:00:13;;;;;;;5.07;1.30;;;4.60;99.90;;;;;;4950992;28;20070;-61
2022/04/03 08:02:40;;;;;;;6.57;1.40;;;4.80;99.90;;;;;;4964783;28;20500;-60
2022/04/03 08:05:07;;;;;;;2.88;1.77;;;4.90;99.90;;;;;;4932958;28;20434;-62
2022/04/03 08:07:36;;;;;;;4.57;1.48;;;5.00;99.90;;;;;;4944900;28;20046;-62
2022/04/03 08:10:12;;;;;;;4.88;2.05;;;5.20;99.90;;;;;;4931005;28;20062;-60
2022/04/03 08:12:39;;;;;;;7.28;1.50;;;5.30;99.90;;;;;;4961563;28;20129;-62
2022/04/03 08:15:05;;;;;;;3.95;1.45;;;5.50;99.90;;;;;;4946251;28;20047;-61
2022/04/03 08:17:32;;;;;;;3.28;1.58;;;5.60;99.90;;;;;;4944355;28;20074;-62
2022/04/03 08:19:58;;;;;;;7.38;1.70;;;5.70;99.90;;;;;;4936557;28;20086;-61
2022/04/03 08:22:24;;;;;;;5.90;1.70;;;5.80;99.90;;;;;;4939733;28;20086;-61
2022/04/03 08:24:50;;;;;;;7.97;1.85;;;5.90;99.90;;;;;;4923134;28;20046;-62
2022/04/03 08:27:17;;;;;;;5.20;1.88;;;5.90;99.90;;;;;;4936971;28;20204;-61
2022/04/03 08:29:43;;;;;;;2.08;1.30;;;5.90;99.90;;;;;;4934268;28;20047;-62
2022/04/03 08:32:09;;;;;;;4.10;1.45;;;6.10;99.90;;;;;;4916794;28;20284;-62
2022/04/03 08:34:36;;;;;;;6.22;1.55;;;6.10;99.90;;;;;;4940296;28;20047;-61
2022/04/03 08:37:01;;;;;;;2.95;1.48;;;6.20;99.90;;;;;;4941653;28;20051;-61
2022/04/03 08:39:27;;;;;;;7.05;1.63;;;6.30;99.90;;;;;;4944937;28;20054;-62
2022/04/03 08:41:55;;;;;;;6.22;1.60;;;6.40;99.90;;;;;;4956316;28;20136;-60
2022/04/03 08:44:21;;;;;;;3.85;1.20;;;6.60;99.90;;;;;;4947508;28;20429;-62
2022/04/03 08:46:49;;;;;;;7.85;1.85;;;6.60;99.90;;;;;;4961265;28;20051;-62
2022/04/03 08:49:19;;;;;;;3.00;0.90;;;6.70;99.90;;;;;;4926809;28;20106;-62
2022/04/03 08:51:46;;;;;;;3.42;1.30;;;6.70;99.90;;;;;;4930439;28;20063;-62
2022/04/03 08:54:14;;;;;;;2.80;1.27;;;6.80;99.90;;;;;;4956414;28;20684;-61
2022/04/03 08:56:42;;;;;;;5.40;1.40;;;7.00;99.90;;;;;;4930654;28;20079;-61
2022/04/03 08:59:09;;;;;;;3.95;1.10;;;7.10;99.90;;;;;;4930703;28;20067;-62
2022/04/03 09:01:35;;;;;;;3.17;0.98;;;7.20;99.90;;;;;;4924688;28;20413;-62
2022/04/03 09:04:01;;;;;;;8.07;1.20;;;7.20;99.90;;;;;;4942056;28;20052;-62
2022/04/03 09:06:27;;;;;;;2.65;1.20;;;7.20;99.90;;;;;;4911006;28;20058;-61
2022/04/03 09:08:53;;;;;;;3.35;1.10;;;7.10;99.90;;;;;;4959296;28;20056;-60
2022/04/03 09:11:19;;;;;;;2.75;1.05;;;7.10;99.90;;;;;;4912768;28;20058;-61
2022/04/03 09:13:45;;;;;;;2.83;1.02;;;7.10;99.90;;;;;;4960383;28;20401;-61
2022/04/03 09:16:12;;;;;;;3.20;1.10;;;7.30;99.90;;;;;;4922695;28;20047;-61
2022/04/03 09:18:46;;;;;;;2.95;0.90;;;7.50;99.90;;;;;;4906905;28;20051;-61
2022/04/03 09:21:23;;;;;;;2.20;0.95;;;7.70;99.90;;;;;;4905237;28;20134;-62
2022/04/03 09:24:11;;;;;;;3.80;1.08;;;7.70;99.90;;;;;;4926011;28;20062;-62
2022/04/03 09:26:40;;;;;;;3.05;1.00;;;7.80;99.90;;;;;;4920829;28;20058;-62
2022/04/03 09:29:07;;;;;;;3.75;1.05;;;8.10;99.60;;;;;;4917892;28;20047;-61
2022/04/03 09:31:33;;;;;;;4.88;1.10;;;8.30;99.00;;;;;;4924045;28;20055;-61
2022/04/03 09:34:04;;;;;;;5.07;1.00;;;8.40;98.70;;;;;;4924488;28;20054;-62
2022/04/03 09:36:32;;;;;;;3.00;1.10;;;8.30;98.80;;;;;;4927215;28;20138;-62
2022/04/03 09:39:08;;;;;;;6.07;1.20;;;8.10;98.70;;;;;;4940219;28;20053;-62
2022/04/03 09:41:55;;;;;;;5.78;1.30;;;8.10;98.60;;;;;;4929780;28;20094;-61
2022/04/03 09:44:34;;;;;;;2.65;1.00;;;8.10;98.90;;;;;;4957244;28;20053;-62
2022/04/03 09:47:20;;;;;;;2.53;1.13;;;8.20;98.60;;;;;;4929903;28;20049;-61
2022/04/03 09:49:53;;;;;;;3.60;1.30;;;8.20;98.50;;;;;;4926100;28;20210;-61
2022/04/03 09:52:37;;;;;;;4.68;1.23;;;8.30;98.80;;;;;;4922125;28;20515;-62
2022/04/03 09:55:23;;;;;;;2.33;1.08;;;8.60;99.10;;;;;;4924516;28;20054;-62
2022/04/03 09:58:12;;;;;;;2.17;1.20;;;8.80;98.50;;;;;;4926634;28;20058;-62
2022/04/03 10:00:40;;;;;;;5.25;1.50;;;8.70;98.20;;;;;;4960089;28;20524;-62
2022/04/03 10:03:10;;;;;;;3.28;1.00;;;8.60;98.30;;;;;;4934844;28;20050;-62
2022/04/03 10:05:36;;;;;;;3.15;1.10;;;8.50;98.20;;;;;;4945133;28;20061;-62
2022/04/03 10:08:04;;;;;;;4.53;1.25;;;8.30;98.20;;;;;;4943651;28;20114;-62
2022/04/03 10:10:33;;;;;;;3.10;1.15;;;8.20;98.10;;;;;;4940849;28;20059;-62
2022/04/03 10:12:59;;;;;;;5.38;1.58;;;8.10;98.20;;;;;;4947352;28;20108;-60
2022/04/03 10:15:27;;;;;;;2.70;1.25;;;8.00;98.40;;;;;;4954111;28;20042;-61
2022/04/03 10:17:53;;;;;;;3.15;1.17;;;8.20;98.60;;;;;;4941975;28;20062;-62
2022/04/03 10:20:19;;;;;;;4.07;1.30;;;8.50;98.50;;;;;;4915144;28;20133;-62
2022/04/03 10:22:48;;;;;;;3.67;1.00;;;8.70;97.90;;;;;;4931551;28;20046;-62
2022/04/03 10:25:22;;;;;;;1.10;0.80;;;9.00;97.20;;;;;;4941569;28;20055;-62
2022/04/03 10:27:50;;;;;;;4.03;1.10;;;9.20;96.10;;;;;;4941090;28;20079;-62
2022/04/03 10:30:17;;;;;;;2.15;1.00;;;9.50;95.40;;;;;;4942823;28;20051;-62
2022/04/03 10:32:56;;;;;;;3.47;1.00;;;9.80;93.40;;;;;;4945282;28;20057;-62
2022/04/03 10:35:22;;;;;;;2.47;1.20;;;10.00;92.10;;;;;;4961720;28;20261;-62
2022/04/03 10:38:03;;;;;;;7.60;1.27;;;10.10;92.10;;;;;;4925352;28;20500;-62
2022/04/03 10:40:34;;;;;;;4.32;1.38;;;10.00;91.60;;;;;;4916330;28;20984;-61
2022/04/03 10:43:06;;;;;;;4.05;1.85;;;9.70;92.20;;;;;;4929891;28;20047;-62
2022/04/03 10:45:41;;;;;;;4.25;1.27;;;9.60;92.10;;;;;;4933008;28;20054;-62
2022/04/03 10:48:22;;;;;;;3.72;1.02;;;9.30;93.20;;;;;;4948862;28;20047;-62
2022/04/03 10:51:05;;;;;;;6.68;1.45;;;8.90;94.30;;;;;;4955328;28;20069;-62
2022/04/03 10:53:36;;;;;;;6.22;1.20;;;8.40;95.60;;;;;;4948346;28;20070;-62
2022/04/03 10:56:08;;;;;;;7.10;1.00;;;8.00;97.20;;;;;;4944535;28;20039;-60
2022/04/03 10:58:43;;;;;;;3.20;1.20;;;7.80;98.20;;;;;;4945116;28;20094;-58
2022/04/03 11:01:21;;;;;;;3.10;1.00;;;7.70;98.70;;;;;;4942932;28;20090;-57
2022/04/03 11:03:54;;;;;;;4.47;1.05;;;7.60;99.20;;;;;;4946788;28;20101;-58
2022/04/03 11:06:23;;;;;;;3.65;1.30;;;7.60;99.50;;;;;;4948294;28;20038;-59
2022/04/03 11:09:05;;;;;;;2.80;1.00;;;7.60;99.70;;;;;;4927821;28;20042;-58
2022/04/03 11:11:51;;;;;;;1.45;0.88;;;7.70;99.80;;;;;;4948070;28;20572;-58
2022/04/03 11:14:52;;;;;;;4.72;1.02;;;7.70;99.90;;;;;;4958206;28;20043;-58
2022/04/03 11:17:46;;;;;;;4.55;1.33;;;7.90;99.20;;;;;;4947051;28;20064;-58
2022/04/03 11:20:54;;;;;;;1.95;1.10;;;8.00;99.00;;;;;;4947712;28;20077;-58
2022/04/03 11:23:21;;;;;;;4.55;1.30;;;8.10;98.40;;;;;;4930732;28;20535;-58
2022/04/03 11:25:47;;;;;;;5.18;1.27;;;8.00;98.30;;;;;;4947569;28;20046;-58
2022/04/03 11:28:13;;;;;;;2.78;1.10;;;8.20;98.10;;;;;;4975441;28;20035;-58
2022/04/03 11:30:39;;;;;;;1.30;0.98;;;8.30;97.90;;;;;;4952075;28;20402;-58
2022/04/03 11:33:06;;;;;;;2.13;1.25;;;8.50;98.00;;;;;;4953452;28;20035;-59
2022/04/03 11:35:40;;;;;;;4.18;1.30;;;8.80;97.90;;;;;;4969927;28;20493;-57
2022/04/03 11:38:07;;;;;;;3.08;1.30;;;9.30;97.10;;;;;;4953351;28;20046;-58
2022/04/03 11:40:36;;;;;;;3.72;1.23;;;9.70;96.70;;;;;;4946385;28;20102;-58
2022/04/03 11:43:19;;;;;;;1.80;0.88;;;10.10;96.30;;;;;;4949204;28;20062;-57
2022/04/03 11:45:58;;;;;;;;;;;10.30;95.20;;;;;;4953750;28;20485;-59
2022/04/03 11:48:35;;;;;;;2.90;1.20;;;10.20;94.80;;;;;;4952016;28;20469;-58
2022/04/03 11:51:12;;;;;;;4.97;1.98;;;9.90;93.60;;;;;;4953555;28;20053;-58
2022/04/03 11:53:40;;;;;;;2.88;0.95;;;9.60;93.70;;;;;;4941290;28;20544;-58
2022/04/03 11:56:14;;;;;;;1.73;0.95;;;9.30;93.40;;;;;;4934385;28;20042;-58
2022/04/03 11:58:48;;;;;;;2.08;1.00;;;9.10;93.80;;;;;;4947439;28;20137;-58
2022/04/03 12:01:24;;;;;;;3.65;1.10;;;9.40;94.90;;;;;;4954590;28;20173;-59
2022/04/03 12:04:00;;;;;;;2.50;1.30;;;10.00;94.70;;;;;;4947535;28;20042;-58
2022/04/03 12:06:29;;;;;;;2.20;0.90;;;10.30;93.30;;;;;;4952655;28;20058;-59
2022/04/03 12:08:54;;;;;;;1.38;0.77;;;10.40;92.30;;;;;;4949711;28;20046;-58
2022/04/03 12:11:29;;;;;;;2.15;0.90;;;10.30;91.00;;;;;;4947552;28;20055;-58
2022/04/03 12:13:57;;;;;;;3.17;0.70;;;10.10;88.20;;;;;;4950844;28;20133;-58
2022/04/03 12:16:34;;;;;;;4.10;0.90;;;9.90;86.80;;;;;;4951384;28;20125;-58
2022/04/03 12:19:02;;;;;;;3.00;1.17;;;9.90;89.70;;;;;;4947221;28;20059;-58
2022/04/03 12:21:42;;;;;;;2.60;0.95;;;10.00;91.10;;;;;;4952014;28;20047;-59
2022/04/03 12:24:09;;;;;;;3.85;0.90;;;9.90;89.90;;;;;;4943992;28;20169;-59
2022/04/03 12:26:36;;;;;;;1.95;0.90;;;9.80;87.70;;;;;;4954132;28;20133;-59
2022/04/03 12:29:07;;;;;;;2.65;0.93;;;9.80;89.10;;;;;;4950681;28;20038;-59
2022/04/03 12:31:34;;;;;;;2.72;1.23;;;9.90;91.00;;;;;;4952270;28;20717;-59
2022/04/03 12:34:15;;;;;;;4.43;1.15;;;10.20;91.30;;;;;;4933801;28;20092;-58
2022/04/03 12:36:45;;;;;;;1.02;0.90;;;10.60;91.50;;;;;;4951540;28;20055;-66
2022/04/03 12:39:44;;;;;;;3.33;1.10;;;11.10;90.90;;;;;;4959369;28;20509;-61
2022/04/03 12:42:25;;;;;;;4.60;1.17;;;11.50;90.00;;;;;;4933217;28;20844;-60
2022/04/03 12:45:00;;;;;;;2.00;1.15;;;11.80;88.40;;;;;;4949206;28;20053;-63
2022/04/03 12:47:29;;;;;;;5.57;1.20;;;11.80;87.40;;;;;;4959190;28;20050;-59
2022/04/03 12:50:10;;;;;;;2.95;0.90;;;11.60;86.50;;;;;;4944394;28;20101;-56
2022/04/03 12:52:48;;;;;;;2.53;0.77;;;11.30;84.90;;;;;;4963173;28;20109;-59
2022/04/03 12:55:23;;;;;;;4.38;1.27;;;10.90;84.60;;;;;;4954766;28;20078;-57
2022/04/03 13:00:53;;;;;;;4.50;1.60;;;10.40;84.90;;;;;;4923496;28;20166;-59
2022/04/03 13:03:47;;;;;;;5.07;1.00;;;10.20;85.20;;;;;;4959232;28;20047;-58
2022/04/03 13:06:28;;;;;;;2.83;1.25;;;10.30;85.30;;;;;;4951037;28;20055;-58